createdAt,value
2017-09-10T00:00:27.545Z,17.85
2017-09-10T00:01:27.532Z,17.89
2017-09-10T00:02:27.516Z,18.00
2017-09-10T00:03:27.507Z,17.99
2017-09-10T00:04:27.497Z,18.02
2017-09-10T00:05:27.475Z,18.04
2017-09-10T00:06:27.465Z,18.00
2017-09-10T00:07:27.456Z,18.00
2017-09-10T00:08:27.442Z,18.09
2017-09-10T00:09:27.423Z,17.97
2017-09-10T00:10:27.412Z,18.06
2017-09-10T00:11:27.392Z,18.09
2017-09-10T00:12:27.383Z,17.99
2017-09-10T00:13:27.366Z,18.04
2017-09-10T00:14:27.478Z,18.02
2017-09-10T00:15:27.343Z,18.02
2017-09-10T00:16:27.331Z,17.92
2017-09-10T00:17:27.396Z,17.89
2017-09-10T00:18:27.303Z,17.89
2017-09-10T00:19:27.290Z,17.92
2017-09-10T00:20:27.276Z,17.82
2017-09-10T00:21:27.255Z,17.91
2017-09-10T00:22:27.241Z,17.76
2017-09-10T00:23:27.230Z,17.79
2017-09-10T00:24:27.212Z,17.82
2017-09-10T00:25:27.208Z,17.73
2017-09-10T00:26:27.193Z,17.89
2017-09-10T00:27:27.170Z,17.85
2017-09-10T00:28:27.160Z,17.78
2017-09-10T00:29:27.148Z,17.76
2017-09-10T00:30:27.215Z,17.79
2017-09-10T00:31:27.116Z,17.71
2017-09-10T00:32:27.106Z,17.79
2017-09-10T00:33:27.415Z,17.71
2017-09-10T00:34:27.151Z,17.70
2017-09-10T00:35:27.078Z,17.82
2017-09-10T00:36:27.049Z,17.73
2017-09-10T00:37:27.033Z,17.76
2017-09-10T00:38:27.023Z,17.78
2017-09-10T00:39:27.008Z,17.73
2017-09-10T00:40:26.989Z,17.73
2017-09-10T00:41:26.982Z,17.76
2017-09-10T00:42:26.966Z,17.71
2017-09-10T00:43:26.953Z,17.71
2017-09-10T00:44:26.938Z,17.69
2017-09-10T00:45:26.925Z,17.73
2017-09-10T00:46:26.905Z,17.70
2017-09-10T00:47:26.896Z,17.73
2017-09-10T00:48:26.883Z,17.69
2017-09-10T00:49:26.868Z,17.78
2017-09-10T00:50:26.854Z,17.71
2017-09-10T00:51:26.848Z,17.79
2017-09-10T00:52:26.829Z,17.76
2017-09-10T00:53:26.812Z,17.76
2017-09-10T00:54:26.798Z,17.64
2017-09-10T00:55:26.781Z,17.71
2017-09-10T00:56:26.771Z,17.79
2017-09-10T00:57:26.756Z,17.69
2017-09-10T00:58:26.745Z,17.73
2017-09-10T00:59:26.726Z,17.71
2017-09-10T01:00:26.722Z,17.74
2017-09-10T01:01:26.704Z,17.73
2017-09-10T01:02:26.689Z,17.74
2017-09-10T01:03:26.672Z,17.76
2017-09-10T01:04:26.664Z,17.74
2017-09-10T01:05:26.646Z,17.76
2017-09-10T01:06:26.640Z,17.81
2017-09-10T01:07:26.623Z,17.78
2017-09-10T01:08:26.610Z,17.76
2017-09-10T01:09:26.587Z,17.78
2017-09-10T01:10:26.581Z,17.79
2017-09-10T01:11:26.561Z,17.71
2017-09-10T01:12:26.545Z,17.82
2017-09-10T01:13:26.536Z,17.81
2017-09-10T01:14:26.523Z,17.81
2017-09-10T01:15:26.506Z,17.78
2017-09-10T01:16:26.494Z,17.88
2017-09-10T01:17:26.478Z,17.89
2017-09-10T01:18:26.465Z,17.92
2017-09-10T01:19:26.446Z,17.87
2017-09-10T01:20:26.433Z,17.73
2017-09-10T01:21:26.423Z,17.79
2017-09-10T01:22:26.414Z,17.76
2017-09-10T01:23:26.391Z,17.76
2017-09-10T01:24:26.379Z,17.88
2017-09-10T01:25:26.363Z,17.85
2017-09-10T01:26:26.353Z,17.79
2017-09-10T01:27:26.340Z,17.91
2017-09-10T01:28:26.327Z,17.88
2017-09-10T01:29:26.305Z,17.89
2017-09-10T01:30:26.299Z,17.95
2017-09-10T01:31:26.286Z,17.92
2017-09-10T01:32:26.267Z,17.87
2017-09-10T01:33:26.257Z,17.78
2017-09-10T01:34:26.239Z,17.82
2017-09-10T01:35:26.228Z,17.78
2017-09-10T01:36:26.215Z,17.84
2017-09-10T01:37:26.199Z,17.82
2017-09-10T01:38:26.186Z,17.85
2017-09-10T01:39:26.174Z,17.85
2017-09-10T01:40:26.158Z,17.81
2017-09-10T01:41:26.155Z,17.81
2017-09-10T01:42:26.133Z,17.85
2017-09-10T01:43:26.113Z,17.85
2017-09-10T01:44:26.106Z,17.89
2017-09-10T01:45:26.090Z,17.78
2017-09-10T01:46:26.075Z,17.81
2017-09-10T01:47:26.062Z,17.76
2017-09-10T01:48:26.045Z,17.88
2017-09-10T01:49:26.037Z,17.81
2017-09-10T01:50:26.024Z,17.79
2017-09-10T01:51:26.010Z,17.95
2017-09-10T01:52:25.991Z,17.91
2017-09-10T01:53:25.978Z,17.79
2017-09-10T01:54:25.964Z,17.92
2017-09-10T01:55:25.946Z,17.88
2017-09-10T01:56:25.936Z,17.79
2017-09-10T01:57:25.926Z,17.88
2017-09-10T01:58:25.904Z,17.95
2017-09-10T01:59:25.899Z,17.94
2017-09-10T02:00:25.885Z,17.89
2017-09-10T02:01:25.866Z,17.85
2017-09-10T02:02:25.855Z,17.85
2017-09-10T02:03:25.840Z,17.84
2017-09-10T02:04:25.827Z,17.82
2017-09-10T02:05:25.813Z,17.87
2017-09-10T02:06:25.801Z,17.92
2017-09-10T02:07:25.790Z,17.95
2017-09-10T02:08:25.771Z,17.94
2017-09-10T02:09:25.756Z,17.89
2017-09-10T02:10:25.742Z,17.85
2017-09-10T02:11:25.727Z,17.92
2017-09-10T02:12:25.710Z,17.92
2017-09-10T02:13:25.701Z,17.88
2017-09-10T02:14:25.688Z,17.97
2017-09-10T02:15:25.672Z,17.94
2017-09-10T02:16:25.666Z,17.88
2017-09-10T02:17:25.645Z,17.94
2017-09-10T02:18:25.630Z,17.81
2017-09-10T02:19:25.619Z,17.92
2017-09-10T02:20:25.608Z,17.88
2017-09-10T02:21:25.590Z,17.84
2017-09-10T02:22:25.576Z,17.95
2017-09-10T02:23:25.566Z,17.94
2017-09-10T02:24:25.547Z,17.94
2017-09-10T02:25:25.535Z,17.94
2017-09-10T02:26:25.516Z,17.88
2017-09-10T02:27:25.508Z,17.91
2017-09-10T02:28:25.493Z,17.88
2017-09-10T02:29:25.484Z,17.91
2017-09-10T02:30:25.464Z,17.97
2017-09-10T02:31:25.451Z,17.94
2017-09-10T02:32:25.434Z,17.85
2017-09-10T02:33:25.432Z,17.94
2017-09-10T02:34:25.414Z,17.91
2017-09-10T02:35:25.397Z,17.89
2017-09-10T02:36:25.382Z,17.85
2017-09-10T02:37:25.365Z,17.94
2017-09-10T02:38:25.353Z,17.88
2017-09-10T02:39:25.346Z,17.95
2017-09-10T02:40:25.331Z,17.97
2017-09-10T02:41:25.311Z,17.97
2017-09-10T02:42:25.308Z,17.97
2017-09-10T02:43:25.285Z,17.95
2017-09-10T02:44:25.271Z,17.97
2017-09-10T02:45:25.251Z,17.95
2017-09-10T02:46:25.244Z,18.00
2017-09-10T02:47:25.226Z,17.99
2017-09-10T02:48:25.217Z,17.94
2017-09-10T02:49:25.200Z,18.04
2017-09-10T02:50:25.192Z,17.97
2017-09-10T02:51:25.168Z,17.95
2017-09-10T02:52:25.159Z,17.91
2017-09-10T02:53:25.148Z,17.94
2017-09-10T02:54:25.132Z,17.88
2017-09-10T02:55:25.121Z,17.85
2017-09-10T02:56:25.101Z,17.73
2017-09-10T02:57:25.091Z,17.79
2017-09-10T02:58:25.075Z,17.81
2017-09-10T02:59:25.059Z,17.81
2017-09-10T03:00:25.040Z,17.82
2017-09-10T03:01:25.046Z,17.84
2017-09-10T03:02:25.019Z,17.78
2017-09-10T03:03:25.006Z,17.81
2017-09-10T03:04:24.996Z,17.71
2017-09-10T03:05:24.970Z,17.73
2017-09-10T03:06:24.964Z,17.67
2017-09-10T03:07:24.945Z,17.66
2017-09-10T03:08:24.932Z,17.64
2017-09-10T03:09:24.922Z,17.69
2017-09-10T03:10:24.909Z,17.66
2017-09-10T03:11:24.893Z,17.69
2017-09-10T03:12:24.887Z,17.70
2017-09-10T03:13:24.868Z,17.69
2017-09-10T03:14:24.855Z,17.67
2017-09-10T03:15:24.836Z,17.57
2017-09-10T03:16:24.823Z,17.74
2017-09-10T03:17:24.809Z,17.66
2017-09-10T03:18:24.796Z,17.67
2017-09-10T03:19:24.783Z,17.67
2017-09-10T03:20:24.768Z,17.69
2017-09-10T03:21:24.756Z,17.64
2017-09-10T03:22:24.772Z,17.59
2017-09-10T03:23:24.726Z,17.66
2017-09-10T03:24:24.707Z,17.46
2017-09-10T03:25:24.697Z,17.51
2017-09-10T03:26:24.683Z,17.51
2017-09-10T03:27:24.668Z,17.48
2017-09-10T03:28:24.655Z,17.53
2017-09-10T03:29:24.637Z,17.55
2017-09-10T03:30:24.627Z,17.50
2017-09-10T03:31:24.612Z,17.55
2017-09-10T03:32:24.599Z,17.53
2017-09-10T03:33:24.586Z,17.59
2017-09-10T03:34:24.567Z,17.57
2017-09-10T03:35:24.551Z,17.63
2017-09-10T03:36:24.550Z,17.57
2017-09-10T03:37:24.525Z,17.55
2017-09-10T03:38:24.513Z,17.47
2017-09-10T03:39:24.498Z,17.55
2017-09-10T03:40:24.487Z,17.55
2017-09-10T03:41:24.474Z,17.57
2017-09-10T03:42:24.458Z,17.64
2017-09-10T03:43:24.445Z,17.69
2017-09-10T03:44:24.432Z,17.71
2017-09-10T03:45:24.416Z,17.67
2017-09-10T03:46:24.400Z,17.67
2017-09-10T03:47:24.390Z,17.69
2017-09-10T03:48:24.371Z,17.64
2017-09-10T03:49:24.361Z,17.70
2017-09-10T03:50:24.349Z,17.74
2017-09-10T03:51:24.335Z,17.71
2017-09-10T03:52:24.324Z,17.70
2017-09-10T03:53:24.310Z,17.73
2017-09-10T03:54:24.287Z,17.78
2017-09-10T03:55:24.271Z,17.70
2017-09-10T03:56:24.262Z,17.69
2017-09-10T03:57:24.246Z,17.70
2017-09-10T03:58:24.230Z,17.66
2017-09-10T03:59:24.220Z,17.71
2017-09-10T04:00:24.209Z,17.66
2017-09-10T04:01:24.191Z,17.67
2017-09-10T04:02:24.178Z,17.62
2017-09-10T04:03:24.165Z,17.62
2017-09-10T04:04:24.146Z,17.62
2017-09-10T04:05:24.136Z,17.62
2017-09-10T04:06:24.126Z,17.67
2017-09-10T04:07:24.107Z,17.59
2017-09-10T04:08:24.091Z,17.51
2017-09-10T04:09:24.078Z,17.54
2017-09-10T04:10:24.066Z,17.51
2017-09-10T04:11:24.051Z,17.54
2017-09-10T04:12:24.037Z,17.51
2017-09-10T04:13:24.029Z,17.48
2017-09-10T04:14:24.010Z,17.41
2017-09-10T04:15:23.998Z,17.50
2017-09-10T04:16:23.988Z,17.44
2017-09-10T04:17:23.967Z,17.51
2017-09-10T04:18:23.953Z,17.54
2017-09-10T04:19:23.944Z,17.50
2017-09-10T04:20:23.924Z,17.48
2017-09-10T04:21:23.911Z,17.51
2017-09-10T04:22:23.896Z,17.46
2017-09-10T04:23:23.883Z,17.47
2017-09-10T04:24:23.867Z,17.44
2017-09-10T04:25:23.854Z,17.40
2017-09-10T04:26:23.845Z,17.44
2017-09-10T04:27:23.828Z,17.35
2017-09-10T04:28:23.816Z,17.41
2017-09-10T04:29:23.796Z,17.38
2017-09-10T04:30:23.784Z,17.35
2017-09-10T04:31:23.773Z,17.35
2017-09-10T04:32:23.755Z,17.36
2017-09-10T04:33:23.742Z,17.32
2017-09-10T04:34:23.723Z,17.25
2017-09-10T04:35:23.716Z,17.26
2017-09-10T04:36:23.700Z,17.22
2017-09-10T04:37:23.687Z,17.25
2017-09-10T04:38:23.675Z,17.18
2017-09-10T04:39:23.652Z,17.14
2017-09-10T04:40:23.651Z,17.15
2017-09-10T04:41:23.634Z,17.20
2017-09-10T04:42:23.610Z,17.07
2017-09-10T04:43:23.602Z,17.10
2017-09-10T04:44:23.587Z,17.10
2017-09-10T04:45:23.571Z,17.13
2017-09-10T04:46:23.558Z,17.07
2017-09-10T04:47:23.542Z,16.98
2017-09-10T04:48:23.530Z,17.10
2017-09-10T04:49:23.511Z,17.08
2017-09-10T04:50:23.498Z,17.15
2017-09-10T04:51:23.486Z,17.20
2017-09-10T04:52:23.475Z,17.10
2017-09-10T04:53:23.456Z,17.15
2017-09-10T04:54:23.444Z,17.15
2017-09-10T04:55:23.427Z,17.15
2017-09-10T04:56:23.416Z,17.22
2017-09-10T04:57:23.403Z,17.11
2017-09-10T04:58:23.381Z,17.08
2017-09-10T04:59:23.379Z,17.14
2017-09-10T05:00:23.359Z,17.11
2017-09-10T05:01:23.337Z,17.13
2017-09-10T05:02:23.330Z,17.08
2017-09-10T05:03:23.321Z,17.08
2017-09-10T05:04:23.301Z,17.10
2017-09-10T05:05:23.289Z,17.08
2017-09-10T05:06:23.275Z,17.07
2017-09-10T05:07:23.260Z,17.10
2017-09-10T05:08:23.249Z,17.13
2017-09-10T05:09:23.231Z,17.15
2017-09-10T05:10:23.221Z,17.13
2017-09-10T05:11:23.203Z,17.10
2017-09-10T05:12:23.196Z,17.06
2017-09-10T05:13:23.174Z,17.06
2017-09-10T05:14:23.161Z,17.11
2017-09-10T05:15:23.145Z,17.10
2017-09-10T05:16:23.132Z,17.13
2017-09-10T05:17:23.113Z,17.13
2017-09-10T05:18:23.099Z,17.08
2017-09-10T05:19:23.087Z,17.08
2017-09-10T05:20:23.071Z,17.06
2017-09-10T05:21:23.059Z,17.06
2017-09-10T05:22:23.042Z,16.98
2017-09-10T05:23:23.030Z,17.00
2017-09-10T05:24:23.023Z,16.99
2017-09-10T05:25:23.005Z,17.00
2017-09-10T05:26:22.988Z,17.03
2017-09-10T05:27:22.976Z,16.99
2017-09-10T05:28:22.965Z,16.96
2017-09-10T05:29:22.947Z,16.95
2017-09-10T05:30:22.936Z,17.00
2017-09-10T05:31:22.927Z,16.95
2017-09-10T05:32:22.901Z,17.00
2017-09-10T05:33:22.890Z,17.03
2017-09-10T05:34:22.876Z,16.98
2017-09-10T05:35:22.863Z,17.03
2017-09-10T05:36:22.844Z,16.98
2017-09-10T05:37:22.832Z,16.98
2017-09-10T05:38:22.813Z,16.89
2017-09-10T05:39:22.797Z,16.80
2017-09-10T05:40:22.797Z,16.85
2017-09-10T05:41:22.771Z,16.85
2017-09-10T05:42:22.762Z,16.86
2017-09-10T05:43:22.748Z,16.86
2017-09-10T05:44:22.733Z,17.00
2017-09-10T05:45:22.722Z,16.90
2017-09-10T05:46:22.704Z,16.83
2017-09-10T05:47:22.685Z,16.89
2017-09-10T05:48:22.676Z,16.83
2017-09-10T05:49:22.665Z,16.85
2017-09-10T05:50:22.644Z,16.86
2017-09-10T05:51:22.630Z,16.89
2017-09-10T05:52:22.613Z,16.81
2017-09-10T05:53:22.596Z,16.89
2017-09-10T05:54:22.590Z,16.83
2017-09-10T05:55:22.574Z,16.81
2017-09-10T05:56:22.561Z,16.81
2017-09-10T05:57:22.542Z,16.78
2017-09-10T05:58:22.533Z,16.83
2017-09-10T05:59:22.522Z,16.81
2017-09-10T06:00:22.501Z,16.81
2017-09-10T06:01:22.488Z,16.80
2017-09-10T06:02:22.475Z,16.73
2017-09-10T06:03:22.462Z,16.75
2017-09-10T06:04:22.443Z,16.70
2017-09-10T06:05:22.430Z,16.77
2017-09-10T06:06:22.416Z,16.75
2017-09-10T06:07:22.403Z,16.78
2017-09-10T06:08:22.386Z,16.77
2017-09-10T06:09:22.377Z,16.74
2017-09-10T06:10:22.358Z,16.81
2017-09-10T06:11:22.375Z,16.77
2017-09-10T06:12:22.332Z,16.85
2017-09-10T06:13:22.317Z,16.75
2017-09-10T06:14:22.307Z,16.80
2017-09-10T06:15:22.281Z,16.70
2017-09-10T06:16:22.269Z,16.75
2017-09-10T06:17:22.253Z,16.73
2017-09-10T06:18:22.246Z,16.73
2017-09-10T06:19:22.229Z,16.80
2017-09-10T06:20:22.216Z,16.78
2017-09-10T06:21:22.199Z,16.83
2017-09-10T06:22:22.187Z,16.77
2017-09-10T06:23:22.170Z,16.83
2017-09-10T06:24:22.161Z,16.78
2017-09-10T06:25:22.142Z,16.83
2017-09-10T06:26:22.125Z,16.85
2017-09-10T06:27:22.114Z,16.81
2017-09-10T06:28:22.094Z,16.85
2017-09-10T06:29:22.087Z,16.83
2017-09-10T06:30:22.068Z,16.86
2017-09-10T06:31:22.055Z,16.86
2017-09-10T06:32:22.039Z,16.83
2017-09-10T06:33:22.033Z,16.95
2017-09-10T06:34:22.016Z,16.85
2017-09-10T06:35:22.006Z,16.96
2017-09-10T06:36:21.985Z,16.98
2017-09-10T06:37:21.965Z,16.99
2017-09-10T06:38:21.955Z,16.96
2017-09-10T06:39:21.940Z,16.98
2017-09-10T06:40:21.924Z,17.10
2017-09-10T06:41:21.914Z,16.95
2017-09-10T06:42:22.664Z,16.99
2017-09-10T06:43:21.882Z,17.04
2017-09-10T06:44:21.865Z,16.99
2017-09-10T06:45:21.856Z,16.96
2017-09-10T06:46:21.844Z,17.14
2017-09-10T06:47:21.824Z,16.99
2017-09-10T06:48:21.813Z,17.03
2017-09-10T06:49:21.800Z,16.98
2017-09-10T06:50:21.785Z,17.03
2017-09-10T06:51:21.768Z,16.89
2017-09-10T06:52:21.752Z,16.99
2017-09-10T06:53:21.739Z,17.10
2017-09-10T06:54:21.727Z,17.06
2017-09-10T06:55:21.705Z,17.07
2017-09-10T06:56:21.700Z,17.20
2017-09-10T06:57:21.682Z,17.28
2017-09-10T06:58:21.669Z,17.15
2017-09-10T06:59:21.657Z,17.15
2017-09-10T07:00:21.638Z,17.20
2017-09-10T07:01:21.618Z,17.23
2017-09-10T07:02:21.615Z,17.30
2017-09-10T07:03:21.595Z,17.36
2017-09-10T07:04:21.583Z,17.32
2017-09-10T07:05:21.563Z,17.32
2017-09-10T07:06:21.554Z,17.26
2017-09-10T07:07:21.538Z,17.32
2017-09-10T07:08:21.525Z,17.30
2017-09-10T07:09:21.509Z,17.33
2017-09-10T07:10:21.490Z,17.26
2017-09-10T07:11:21.480Z,17.28
2017-09-10T07:12:21.467Z,17.23
2017-09-10T07:13:21.449Z,17.23
2017-09-10T07:14:21.442Z,17.26
2017-09-10T07:15:21.420Z,17.30
2017-09-10T07:16:21.410Z,17.35
2017-09-10T07:17:21.400Z,17.43
2017-09-10T07:18:21.384Z,17.44
2017-09-10T07:19:21.368Z,17.46
2017-09-10T07:20:21.347Z,17.51
2017-09-10T07:21:21.339Z,17.55
2017-09-10T07:22:21.324Z,17.51
2017-09-10T07:23:21.317Z,17.63
2017-09-10T07:24:21.293Z,17.64
2017-09-10T07:25:21.834Z,17.55
2017-09-10T07:26:21.269Z,17.64
2017-09-10T07:27:21.250Z,17.71
2017-09-10T07:28:21.237Z,17.73
2017-09-10T07:29:21.227Z,17.70
2017-09-10T07:30:21.359Z,17.78
2017-09-10T07:31:21.197Z,17.76
2017-09-10T07:32:21.181Z,17.87
2017-09-10T07:33:21.166Z,17.79
2017-09-10T07:34:21.155Z,17.81
2017-09-10T07:35:21.207Z,17.88
2017-09-10T07:36:21.127Z,17.88
2017-09-10T07:37:21.114Z,17.88
2017-09-10T07:38:21.102Z,18.06
2017-09-10T07:39:21.092Z,18.07
2017-09-10T07:40:21.075Z,18.03
2017-09-10T07:41:21.066Z,18.04
2017-09-10T07:42:21.038Z,18.12
2017-09-10T07:43:21.020Z,18.15
2017-09-10T07:44:21.017Z,18.09
2017-09-10T07:45:21.007Z,18.00
2017-09-10T07:46:20.981Z,18.06
2017-09-10T07:47:20.966Z,18.09
2017-09-10T07:48:20.959Z,18.09
2017-09-10T07:49:20.943Z,18.17
2017-09-10T07:50:20.933Z,18.09
2017-09-10T07:51:20.914Z,18.10
2017-09-10T07:52:20.905Z,18.24
2017-09-10T07:53:20.885Z,18.18
2017-09-10T07:54:20.872Z,18.15
2017-09-10T07:55:20.860Z,18.27
2017-09-10T07:56:20.854Z,18.31
2017-09-10T07:57:20.849Z,18.34
2017-09-10T07:58:20.816Z,18.27
2017-09-10T07:59:20.949Z,18.39
2017-09-10T08:00:20.786Z,18.46
2017-09-10T08:01:20.777Z,18.47
2017-09-10T08:02:20.793Z,18.52
2017-09-10T08:03:20.748Z,18.50
2017-09-10T08:04:20.735Z,18.54
2017-09-10T08:05:20.720Z,18.49
2017-09-10T08:06:20.717Z,18.58
2017-09-10T08:07:20.698Z,18.55
2017-09-10T08:08:20.676Z,18.55
2017-09-10T08:09:20.665Z,18.50
2017-09-10T08:10:20.649Z,18.62
2017-09-10T08:11:20.641Z,18.61
2017-09-10T08:12:20.630Z,18.67
2017-09-10T08:13:20.611Z,18.61
2017-09-10T08:14:20.603Z,18.65
2017-09-10T08:15:20.579Z,18.64
2017-09-10T08:16:20.567Z,18.67
2017-09-10T08:17:20.557Z,18.54
2017-09-10T08:18:20.541Z,18.58
2017-09-10T08:19:20.524Z,18.44
2017-09-10T08:20:20.517Z,18.42
2017-09-10T08:21:20.498Z,18.39
2017-09-10T08:22:20.490Z,18.43
2017-09-10T08:23:20.469Z,18.43
2017-09-10T08:24:20.470Z,18.46
2017-09-10T08:25:20.445Z,18.47
2017-09-10T08:26:20.437Z,18.44
2017-09-10T08:27:20.425Z,18.54
2017-09-10T08:28:20.404Z,18.57
2017-09-10T08:29:20.388Z,18.44
2017-09-10T08:30:20.372Z,18.62
2017-09-10T08:31:20.366Z,18.57
2017-09-10T08:32:20.350Z,18.62
2017-09-10T08:33:20.334Z,18.80
2017-09-10T08:34:20.318Z,18.77
2017-09-10T08:35:20.301Z,18.80
2017-09-10T08:36:20.296Z,18.76
2017-09-10T08:37:20.277Z,18.70
2017-09-10T08:38:20.266Z,18.73
2017-09-10T08:39:20.253Z,18.86
2017-09-10T08:40:20.240Z,18.90
2017-09-10T08:41:20.225Z,18.87
2017-09-10T08:42:20.217Z,18.99
2017-09-10T08:43:20.199Z,18.97
2017-09-10T08:44:20.191Z,18.91
2017-09-10T08:45:20.184Z,18.97
2017-09-10T08:46:20.155Z,18.97
2017-09-10T08:47:20.142Z,18.99
2017-09-10T08:48:20.132Z,19.08
2017-09-10T08:49:20.120Z,19.02
2017-09-10T08:50:20.102Z,18.99
2017-09-10T08:51:20.091Z,19.01
2017-09-10T08:52:20.081Z,19.05
2017-09-10T08:53:20.061Z,19.06
2017-09-10T08:54:20.046Z,19.17
2017-09-10T08:55:20.030Z,19.14
2017-09-10T08:56:20.019Z,19.10
2017-09-10T08:57:20.011Z,19.14
2017-09-10T08:58:19.997Z,19.17
2017-09-10T08:59:19.981Z,19.15
2017-09-10T09:00:19.965Z,19.21
2017-09-10T09:01:19.952Z,19.29
2017-09-10T09:02:19.940Z,19.25
2017-09-10T09:03:19.940Z,19.28
2017-09-10T09:04:19.913Z,19.35
2017-09-10T09:05:19.908Z,19.31
2017-09-10T09:06:19.882Z,19.42
2017-09-10T09:07:19.879Z,19.40
2017-09-10T09:08:19.856Z,19.38
2017-09-10T09:09:19.837Z,19.43
2017-09-10T09:10:19.839Z,19.39
2017-09-10T09:11:19.822Z,19.38
2017-09-10T09:12:19.821Z,19.43
2017-09-10T09:13:19.791Z,19.40
2017-09-10T09:14:19.804Z,19.31
2017-09-10T09:15:19.765Z,19.39
2017-09-10T09:16:19.752Z,19.32
2017-09-10T09:17:19.729Z,19.39
2017-09-10T09:18:19.745Z,19.32
2017-09-10T09:19:19.718Z,19.36
2017-09-10T09:20:19.692Z,19.40
2017-09-10T09:21:19.713Z,19.28
2017-09-10T09:22:19.671Z,19.31
2017-09-10T09:23:19.652Z,19.24
2017-09-10T09:24:19.642Z,19.21
2017-09-10T09:25:19.841Z,19.20
2017-09-10T09:26:19.625Z,19.23
2017-09-10T09:27:19.604Z,19.29
2017-09-10T09:28:19.588Z,19.23
2017-09-10T09:29:19.572Z,19.20
2017-09-10T09:30:19.557Z,19.25
2017-09-10T09:31:19.549Z,19.25
2017-09-10T09:32:19.542Z,19.32
2017-09-10T09:33:19.524Z,19.28
2017-09-10T09:34:19.507Z,19.32
2017-09-10T09:35:19.496Z,19.18
2017-09-10T09:36:19.499Z,19.33
2017-09-10T09:37:19.467Z,19.31
2017-09-10T09:38:19.457Z,19.33
2017-09-10T09:39:19.445Z,19.31
2017-09-10T09:40:19.428Z,19.31
2017-09-10T09:41:19.420Z,19.38
2017-09-10T09:42:19.401Z,19.40
2017-09-10T09:43:19.385Z,19.48
2017-09-10T09:44:19.372Z,19.54
2017-09-10T09:45:19.357Z,19.51
2017-09-10T09:46:19.349Z,19.39
2017-09-10T09:47:19.337Z,19.42
2017-09-10T09:48:19.327Z,19.40
2017-09-10T09:49:19.308Z,19.40
2017-09-10T09:50:19.289Z,19.50
2017-09-10T09:51:19.282Z,19.54
2017-09-10T09:52:19.268Z,19.55
2017-09-10T09:53:19.253Z,19.58
2017-09-10T09:54:19.244Z,19.63
2017-09-10T09:55:19.232Z,19.69
2017-09-10T09:56:19.215Z,19.68
2017-09-10T09:57:19.208Z,19.76
2017-09-10T09:58:19.196Z,19.69
2017-09-10T09:59:19.173Z,19.87
2017-09-10T10:00:19.166Z,19.94
2017-09-10T10:01:19.164Z,20.03
2017-09-10T10:02:19.136Z,20.06
2017-09-10T10:03:19.131Z,20.20
2017-09-10T10:04:19.113Z,20.10
2017-09-10T10:05:19.091Z,20.12
2017-09-10T10:06:19.087Z,20.15
2017-09-10T10:07:19.074Z,20.20
2017-09-10T10:08:19.060Z,20.20
2017-09-10T10:09:19.042Z,20.23
2017-09-10T10:10:19.030Z,20.20
2017-09-10T10:11:19.017Z,20.20
2017-09-10T10:12:19.006Z,20.12
2017-09-10T10:13:18.994Z,20.15
2017-09-10T10:14:18.989Z,20.13
2017-09-10T10:15:18.975Z,20.09
2017-09-10T10:16:18.951Z,20.00
2017-09-10T10:17:18.943Z,20.16
2017-09-10T10:18:18.937Z,20.08
2017-09-10T10:19:18.911Z,20.15
2017-09-10T10:20:18.898Z,20.20
2017-09-10T10:21:18.886Z,20.24
2017-09-10T10:22:18.885Z,20.23
2017-09-10T10:23:18.860Z,20.34
2017-09-10T10:24:18.847Z,20.38
2017-09-10T10:25:18.856Z,20.38
2017-09-10T10:26:18.831Z,20.53
2017-09-10T10:27:18.804Z,20.49
2017-09-10T10:28:18.800Z,20.53
2017-09-10T10:29:18.785Z,20.56
2017-09-10T10:30:18.770Z,20.59
2017-09-10T10:31:18.761Z,20.66
2017-09-10T10:32:18.742Z,20.69
2017-09-10T10:33:18.734Z,20.66
2017-09-10T10:34:18.720Z,20.69
2017-09-10T10:35:18.702Z,20.69
2017-09-10T10:36:18.693Z,20.76
2017-09-10T10:37:18.683Z,20.81
2017-09-10T10:38:18.666Z,20.84
2017-09-10T10:39:18.667Z,20.86
2017-09-10T10:40:18.638Z,20.83
2017-09-10T10:41:18.629Z,20.86
2017-09-10T10:42:18.620Z,20.80
2017-09-10T10:43:18.602Z,20.84
2017-09-10T10:44:18.595Z,20.84
2017-09-10T10:45:18.574Z,20.86
2017-09-10T10:46:18.588Z,20.90
2017-09-10T10:47:18.549Z,20.91
2017-09-10T10:48:18.538Z,20.96
2017-09-10T10:49:18.524Z,20.99
2017-09-10T10:50:18.512Z,20.98
2017-09-10T10:51:18.502Z,21.08
2017-09-10T10:52:18.499Z,21.08
2017-09-10T10:53:18.477Z,21.09
2017-09-10T10:54:18.463Z,21.17
2017-09-10T10:55:18.448Z,21.08
2017-09-10T10:56:18.435Z,21.16
2017-09-10T10:57:18.425Z,21.26
2017-09-10T10:58:18.413Z,21.23
2017-09-10T10:59:18.403Z,21.35
2017-09-10T11:00:18.409Z,21.35
2017-09-10T11:01:18.374Z,21.44
2017-09-10T11:02:18.376Z,21.46
2017-09-10T11:03:18.355Z,21.50
2017-09-10T11:04:18.353Z,21.44
2017-09-10T11:05:18.324Z,21.53
2017-09-10T11:06:18.313Z,21.60
2017-09-10T11:07:18.297Z,21.54
2017-09-10T11:08:18.285Z,21.59
2017-09-10T11:09:18.272Z,21.64
2017-09-10T11:10:18.256Z,21.64
2017-09-10T11:11:18.252Z,21.71
2017-09-10T11:12:18.231Z,21.64
2017-09-10T11:13:18.219Z,21.88
2017-09-10T11:14:18.208Z,21.88
2017-09-10T11:15:18.205Z,21.82
2017-09-10T11:16:18.189Z,21.83
2017-09-10T11:17:18.169Z,21.91
2017-09-10T11:18:18.159Z,21.92
2017-09-10T11:19:18.150Z,22.07
2017-09-10T11:20:18.135Z,22.13
2017-09-10T11:21:18.129Z,22.12
2017-09-10T11:22:18.113Z,22.19
2017-09-10T11:23:18.101Z,22.19
2017-09-10T11:24:18.084Z,22.29
2017-09-10T11:25:18.074Z,22.34
2017-09-10T11:26:18.062Z,22.35
2017-09-10T11:27:18.054Z,22.29
2017-09-10T11:28:18.040Z,22.56
2017-09-10T11:29:18.036Z,22.60
2017-09-10T11:30:18.014Z,22.64
2017-09-10T11:31:17.998Z,22.68
2017-09-10T11:32:17.992Z,22.64
2017-09-10T11:33:17.975Z,22.72
2017-09-10T11:34:17.966Z,22.72
2017-09-10T11:35:17.953Z,22.59
2017-09-10T11:36:17.931Z,22.67
2017-09-10T11:37:17.928Z,22.74
2017-09-10T11:38:17.927Z,22.83
2017-09-10T11:39:17.907Z,22.82
2017-09-10T11:40:17.893Z,22.89
2017-09-10T11:41:17.879Z,22.75
2017-09-10T11:42:17.872Z,22.94
2017-09-10T11:43:17.861Z,22.87
2017-09-10T11:44:17.843Z,22.99
2017-09-10T11:45:17.835Z,22.93
2017-09-10T11:46:17.827Z,23.07
2017-09-10T11:47:17.809Z,23.15
2017-09-10T11:48:17.793Z,23.09
2017-09-10T11:49:17.788Z,23.12
2017-09-10T11:50:17.771Z,23.11
2017-09-10T11:51:17.769Z,23.14
2017-09-10T11:52:17.749Z,23.02
2017-09-10T11:53:17.745Z,23.08
2017-09-10T11:54:17.731Z,23.07
2017-09-10T11:55:17.717Z,23.12
2017-09-10T11:56:17.705Z,23.19
2017-09-10T11:57:17.694Z,23.08
2017-09-10T11:58:17.688Z,23.09
2017-09-10T11:59:17.663Z,23.11
